Time;durP1;ratioP1;P1;durP2;ratioP2;P2;SDS_P1;SDS_P2;PMS_P1;PMS_P2;Temp;Humidity;BMP_temperature;BMP_pressure;BME280_temperature;BME280_humidity;BME280_pressure;Samples;Min_cycle;Max_cycle;Signal;HPM_P1;HPM_P2
2022/04/23 00:00:50;;;;;;;0.00;0.00;;;;;;;;;;1743353;28;20494;-76
2022/04/23 00:01:42;;;;;;;0.00;0.00;;;;;;;;;;1744203;28;20250;-76
2022/04/23 00:02:34;;;;;;;0.00;0.00;;;;;;;;;;1747080;28;20229;-76
2022/04/23 00:03:25;;;;;;;0.00;0.00;;;;;;;;;;1746072;28;20536;-76
2022/04/23 00:04:17;;;;;;;0.00;0.00;;;;;;;;;;1747740;28;20209;-75
2022/04/23 00:05:10;;;;;;;0.00;0.00;;;;;;;;;;1744888;28;20207;-77
2022/04/23 00:06:02;;;;;;;0.00;0.00;;;;;;;;;;1745480;28;20234;-75
2022/04/23 00:06:53;;;;;;;0.00;0.00;;;;;;;;;;1746996;28;20198;-76
2022/04/23 00:07:45;;;;;;;0.00;0.00;;;;;;;;;;1746331;28;20206;-76
2022/04/23 00:08:36;;;;;;;0.10;0.10;;;;;;;;;;1746998;28;20206;-76
2022/04/23 00:09:29;;;;;;;0.00;0.00;;;;;;;;;;1747106;28;20202;-76
2022/04/23 00:10:23;;;;;;;0.00;0.00;;;;;;;;;;1743359;28;20461;-76
2022/04/23 00:11:15;;;;;;;0.00;0.00;;;;;;;;;;1740621;28;20294;-76
2022/04/23 00:12:08;;;;;;;0.00;0.00;;;;;;;;;;1746669;28;20213;-76
2022/04/23 00:13:00;;;;;;;0.00;0.00;;;;;;;;;;1744120;28;20544;-76
2022/04/23 00:13:51;;;;;;;0.00;0.00;;;;;;;;;;1746628;28;20202;-76
2022/04/23 00:14:43;;;;;;;0.00;0.00;;;;;;;;;;1746637;28;20221;-76
2022/04/23 00:15:37;;;;;;;0.00;0.00;;;;;;;;;;1742783;28;20230;-76
2022/04/23 00:16:30;;;;;;;0.00;0.00;;;;;;;;;;1745256;28;20332;-76
2022/04/23 00:17:22;;;;;;;0.00;0.00;;;;;;;;;;1739121;28;20535;-76
2022/04/23 00:18:14;;;;;;;0.00;0.00;;;;;;;;;;1740027;28;20207;-76
2022/04/23 00:19:06;;;;;;;0.00;0.00;;;;;;;;;;1744086;28;20210;-76
2022/04/23 00:19:58;;;;;;;0.00;0.00;;;;;;;;;;1749174;28;20203;-76
2022/04/23 00:20:49;;;;;;;0.00;0.00;;;;;;;;;;1743782;28;20576;-76
2022/04/23 00:21:42;;;;;;;0.00;0.00;;;;;;;;;;1746230;28;20292;-76
2022/04/23 00:22:36;;;;;;;0.00;0.00;;;;;;;;;;1744618;28;20600;-76
2022/04/23 00:23:31;;;;;;;0.00;0.00;;;;;;;;;;1746610;28;20279;-77
2022/04/23 00:24:22;;;;;;;0.00;0.00;;;;;;;;;;1745559;28;20271;-76
2022/04/23 00:25:14;;;;;;;0.00;0.00;;;;;;;;;;1744918;28;20252;-77
2022/04/23 00:26:07;;;;;;;0.00;0.00;;;;;;;;;;1745341;28;20241;-76
2022/04/23 00:26:59;;;;;;;0.00;0.00;;;;;;;;;;1746660;28;20202;-77
2022/04/23 00:27:50;;;;;;;0.00;0.00;;;;;;;;;;1745637;28;20213;-77
2022/04/23 00:28:42;;;;;;;0.00;0.00;;;;;;;;;;1745850;28;20297;-77
2022/04/23 00:29:35;;;;;;;0.00;0.00;;;;;;;;;;1746118;28;20214;-76
2022/04/23 00:30:28;;;;;;;0.00;0.00;;;;;;;;;;1744244;28;20220;-77
2022/04/23 00:31:19;;;;;;;0.00;0.00;;;;;;;;;;1746816;28;20199;-77
2022/04/23 00:32:11;;;;;;;0.00;0.00;;;;;;;;;;1746695;28;20213;-77
2022/04/23 00:33:03;;;;;;;0.00;0.00;;;;;;;;;;1746145;28;20205;-77
2022/04/23 00:33:55;;;;;;;0.00;0.00;;;;;;;;;;1746534;28;20198;-77
2022/04/23 00:34:46;;;;;;;0.00;0.00;;;;;;;;;;1746158;28;20206;-77
2022/04/23 00:35:38;;;;;;;0.00;0.00;;;;;;;;;;1743845;28;20241;-77
2022/04/23 00:36:30;;;;;;;0.00;0.00;;;;;;;;;;1749355;28;20556;-76
2022/04/23 00:37:22;;;;;;;0.00;0.00;;;;;;;;;;1745844;28;20293;-76
2022/04/23 00:38:15;;;;;;;0.00;0.00;;;;;;;;;;1746686;28;20206;-76
2022/04/23 00:39:07;;;;;;;0.00;0.00;;;;;;;;;;1750508;28;20321;-76
2022/04/23 00:39:58;;;;;;;0.00;0.00;;;;;;;;;;1746446;28;20213;-76
2022/04/23 00:40:50;;;;;;;0.00;0.00;;;;;;;;;;1743320;28;20257;-76
2022/04/23 00:41:46;;;;;;;0.00;0.00;;;;;;;;;;1746987;28;20203;-76
2022/04/23 00:42:45;;;;;;;0.00;0.00;;;;;;;;;;1746075;28;20202;-75
2022/04/23 00:43:37;;;;;;;0.00;0.00;;;;;;;;;;1746477;28;20205;-76
2022/04/23 00:44:28;;;;;;;0.00;0.00;;;;;;;;;;1745791;28;20509;-76
2022/04/23 00:45:23;;;;;;;0.00;0.00;;;;;;;;;;1736740;28;20234;-75
2022/04/23 00:46:14;;;;;;;0.00;0.00;;;;;;;;;;1746089;28;20194;-76
2022/04/23 00:47:06;;;;;;;0.00;0.00;;;;;;;;;;1746052;28;20226;-76
2022/04/23 00:47:57;;;;;;;0.00;0.00;;;;;;;;;;1746866;28;20413;-77
2022/04/23 00:48:49;;;;;;;0.00;0.00;;;;;;;;;;1746752;28;20194;-76
2022/04/23 00:49:41;;;;;;;0.00;0.00;;;;;;;;;;1746747;28;20206;-76
2022/04/23 00:50:33;;;;;;;0.00;0.00;;;;;;;;;;1744521;28;20237;-76
2022/04/23 00:51:25;;;;;;;0.00;0.00;;;;;;;;;;1746164;28;20260;-76
2022/04/23 00:52:17;;;;;;;0.00;0.00;;;;;;;;;;1746726;28;20213;-76
2022/04/23 00:53:09;;;;;;;0.00;0.00;;;;;;;;;;1745437;28;20214;-76
2022/04/23 00:54:04;;;;;;;0.00;0.00;;;;;;;;;;1746066;28;20205;-76
2022/04/23 00:54:56;;;;;;;0.00;0.00;;;;;;;;;;1750452;28;20230;-76
2022/04/23 00:55:48;;;;;;;0.00;0.00;;;;;;;;;;1743627;28;20229;-76
2022/04/23 00:56:40;;;;;;;0.00;0.00;;;;;;;;;;1744257;28;20263;-76
2022/04/23 00:57:35;;;;;;;0.00;0.00;;;;;;;;;;1745960;28;20204;-76
2022/04/23 00:58:27;;;;;;;0.00;0.00;;;;;;;;;;1746753;28;20202;-76
2022/04/23 00:59:19;;;;;;;0.00;0.00;;;;;;;;;;1744711;28;20654;-76
2022/04/23 01:00:11;;;;;;;0.00;0.00;;;;;;;;;;1744580;28;20210;-77
2022/04/23 01:01:03;;;;;;;0.00;0.00;;;;;;;;;;1744912;28;20280;-76
2022/04/23 01:01:54;;;;;;;0.00;0.00;;;;;;;;;;1746380;28;20559;-76
2022/04/23 01:02:46;;;;;;;0.00;0.00;;;;;;;;;;1746398;28;21440;-76
2022/04/23 01:03:39;;;;;;;0.00;0.00;;;;;;;;;;1746695;28;20214;-76
2022/04/23 01:04:31;;;;;;;0.00;0.00;;;;;;;;;;1747130;28;20653;-76
2022/04/23 01:05:23;;;;;;;0.00;0.00;;;;;;;;;;1742703;28;20514;-76
2022/04/23 01:06:16;;;;;;;0.00;0.00;;;;;;;;;;1746351;28;20202;-75
2022/04/23 01:07:08;;;;;;;0.00;0.00;;;;;;;;;;1746732;28;20636;-75
2022/04/23 01:08:02;;;;;;;0.00;0.00;;;;;;;;;;1745232;28;20198;-75
2022/04/23 01:08:53;;;;;;;0.00;0.00;;;;;;;;;;1747850;28;20684;-75
2022/04/23 01:09:47;;;;;;;0.00;0.00;;;;;;;;;;1744881;28;20288;-75
2022/04/23 01:10:39;;;;;;;0.00;0.00;;;;;;;;;;1742524;28;20506;-75
2022/04/23 01:11:32;;;;;;;0.00;0.00;;;;;;;;;;1739007;28;20962;-76
2022/04/23 01:12:23;;;;;;;0.00;0.00;;;;;;;;;;1745218;28;20616;-76
2022/04/23 01:13:17;;;;;;;0.00;0.00;;;;;;;;;;1745997;28;20245;-76
2022/04/23 01:14:08;;;;;;;0.00;0.00;;;;;;;;;;1745671;28;20575;-77
2022/04/23 01:15:01;;;;;;;0.00;0.00;;;;;;;;;;1746134;28;20204;-76
2022/04/23 01:15:59;;;;;;;0.00;0.00;;;;;;;;;;1743023;28;20234;-76
2022/04/23 01:16:51;;;;;;;0.00;0.00;;;;;;;;;;1746116;28;20202;-76
2022/04/23 01:17:43;;;;;;;0.00;0.00;;;;;;;;;;1745755;28;20201;-75
2022/04/23 01:18:36;;;;;;;0.00;0.00;;;;;;;;;;1745936;28;20198;-75
2022/04/23 01:19:29;;;;;;;0.00;0.00;;;;;;;;;;1746659;28;20201;-75
2022/04/23 01:20:24;;;;;;;0.00;0.00;;;;;;;;;;1736080;28;20231;-75
2022/04/23 01:21:15;;;;;;;0.00;0.00;;;;;;;;;;1746715;28;20199;-75
2022/04/23 01:22:08;;;;;;;0.00;0.00;;;;;;;;;;1746427;28;20501;-76
2022/04/23 01:22:59;;;;;;;0.00;0.00;;;;;;;;;;1745401;28;20206;-76
2022/04/23 01:23:53;;;;;;;0.00;0.00;;;;;;;;;;1745409;28;20620;-76
2022/04/23 01:24:44;;;;;;;0.00;0.00;;;;;;;;;;1746296;28;20209;-76
2022/04/23 01:25:37;;;;;;;0.00;0.00;;;;;;;;;;1743432;28;20336;-77
2022/04/23 01:26:28;;;;;;;0.00;0.00;;;;;;;;;;1745928;28;20615;-76
2022/04/23 01:27:22;;;;;;;0.00;0.00;;;;;;;;;;1745695;28;20860;-76
2022/04/23 01:28:15;;;;;;;0.00;0.00;;;;;;;;;;1745638;28;20221;-76
2022/04/23 01:29:07;;;;;;;0.00;0.00;;;;;;;;;;1746070;28;20501;-76
2022/04/23 01:29:58;;;;;;;0.00;0.00;;;;;;;;;;1745174;28;20221;-76
2022/04/23 01:30:50;;;;;;;0.00;0.00;;;;;;;;;;1742456;28;20240;-76
2022/04/23 01:31:42;;;;;;;0.00;0.00;;;;;;;;;;1745970;28;20217;-75
2022/04/23 01:32:34;;;;;;;0.00;0.00;;;;;;;;;;1739349;28;20208;-75
2022/04/23 01:33:26;;;;;;;0.00;0.00;;;;;;;;;;1745060;28;20206;-75
2022/04/23 01:34:18;;;;;;;0.00;0.00;;;;;;;;;;1745519;28;20202;-75
2022/04/23 01:35:09;;;;;;;0.00;0.00;;;;;;;;;;1744281;28;20285;-74
2022/04/23 01:36:03;;;;;;;0.00;0.00;;;;;;;;;;1743775;28;20226;-74
2022/04/23 01:36:54;;;;;;;0.00;0.00;;;;;;;;;;1745562;28;20532;-74
2022/04/23 01:37:47;;;;;;;0.00;0.00;;;;;;;;;;1746024;28;20221;-75
2022/04/23 01:38:38;;;;;;;0.00;0.00;;;;;;;;;;1750287;28;20189;-74
2022/04/23 01:39:30;;;;;;;0.00;0.00;;;;;;;;;;1746772;28;20265;-76
2022/04/23 01:40:22;;;;;;;0.00;0.00;;;;;;;;;;1739832;28;20194;-74
2022/04/23 01:41:15;;;;;;;0.00;0.00;;;;;;;;;;1745232;28;20198;-76
2022/04/23 01:42:06;;;;;;;0.00;0.00;;;;;;;;;;1745652;28;20606;-76
2022/04/23 01:42:58;;;;;;;0.00;0.00;;;;;;;;;;1745048;28;20783;-75
2022/04/23 01:43:50;;;;;;;0.00;0.00;;;;;;;;;;1745984;28;20615;-76
2022/04/23 01:44:42;;;;;;;0.00;0.00;;;;;;;;;;1745702;28;20267;-76
2022/04/23 01:45:33;;;;;;;0.00;0.00;;;;;;;;;;1743451;28;20572;-75
2022/04/23 01:46:25;;;;;;;0.00;0.00;;;;;;;;;;1746082;28;20623;-75
2022/04/23 01:47:17;;;;;;;0.00;0.00;;;;;;;;;;1745739;28;20206;-75
2022/04/23 01:48:09;;;;;;;0.00;0.00;;;;;;;;;;1745029;28;20206;-75
2022/04/23 01:49:01;;;;;;;0.00;0.00;;;;;;;;;;1744956;28;20202;-74
2022/04/23 01:49:52;;;;;;;0.00;0.00;;;;;;;;;;1746350;28;20198;-74
2022/04/23 01:50:44;;;;;;;0.00;0.00;;;;;;;;;;1743282;28;20221;-75
2022/04/23 01:51:37;;;;;;;0.00;0.00;;;;;;;;;;1745912;28;20787;-75
2022/04/23 01:52:29;;;;;;;0.00;0.00;;;;;;;;;;1744753;28;20210;-75
2022/04/23 01:53:22;;;;;;;0.00;0.00;;;;;;;;;;1743478;28;20206;-75
2022/04/23 01:54:15;;;;;;;0.00;0.00;;;;;;;;;;1745615;28;20290;-76
2022/04/23 01:55:07;;;;;;;0.00;0.00;;;;;;;;;;1745683;28;20533;-76
2022/04/23 01:55:59;;;;;;;0.00;0.00;;;;;;;;;;1742574;28;20233;-75
2022/04/23 01:56:50;;;;;;;0.00;0.00;;;;;;;;;;1746116;28;20202;-75
2022/04/23 01:57:42;;;;;;;0.00;0.00;;;;;;;;;;1744724;28;20241;-74
2022/04/23 01:58:34;;;;;;;0.00;0.00;;;;;;;;;;1745838;28;20631;-75
2022/04/23 01:59:26;;;;;;;0.00;0.00;;;;;;;;;;1745370;28;20659;-75
2022/04/23 02:00:17;;;;;;;0.00;0.00;;;;;;;;;;1742921;28;20198;-75
2022/04/23 02:01:09;;;;;;;0.00;0.00;;;;;;;;;;1744417;28;20293;-75
2022/04/23 02:02:01;;;;;;;0.00;0.00;;;;;;;;;;1743265;28;20639;-75
2022/04/23 02:02:53;;;;;;;0.00;0.00;;;;;;;;;;1744989;28;20208;-75
2022/04/23 02:03:45;;;;;;;0.00;0.00;;;;;;;;;;1746154;28;20223;-75
2022/04/23 02:04:38;;;;;;;0.00;0.00;;;;;;;;;;1745043;28;20222;-75
2022/04/23 02:05:29;;;;;;;0.00;0.00;;;;;;;;;;1743574;28;20234;-74
2022/04/23 02:06:21;;;;;;;0.00;0.00;;;;;;;;;;1744804;28;20260;-74
2022/04/23 02:07:14;;;;;;;0.00;0.00;;;;;;;;;;1745399;28;20584;-74
2022/04/23 02:08:08;;;;;;;0.00;0.00;;;;;;;;;;1743709;28;20315;-74
2022/04/23 02:08:59;;;;;;;0.00;0.00;;;;;;;;;;1742187;28;20536;-74
2022/04/23 02:09:51;;;;;;;0.00;0.00;;;;;;;;;;1745565;28;20214;-74
2022/04/23 02:10:43;;;;;;;0.00;0.00;;;;;;;;;;1743034;28;20229;-75
2022/04/23 02:11:35;;;;;;;0.00;0.00;;;;;;;;;;1749344;28;20273;-75
2022/04/23 02:12:26;;;;;;;0.00;0.00;;;;;;;;;;1744735;28;20206;-75
2022/04/23 02:13:19;;;;;;;0.00;0.00;;;;;;;;;;1745111;28;20268;-75
2022/04/23 02:14:10;;;;;;;0.00;0.00;;;;;;;;;;1745145;28;20217;-75
2022/04/23 02:15:02;;;;;;;0.00;0.00;;;;;;;;;;1745917;28;20300;-76
2022/04/23 02:15:53;;;;;;;0.00;0.00;;;;;;;;;;1742853;28;21254;-75
2022/04/23 02:16:46;;;;;;;0.00;0.00;;;;;;;;;;1745872;28;20209;-75
2022/04/23 02:17:37;;;;;;;0.00;0.00;;;;;;;;;;1745124;28;20214;-74
2022/04/23 02:18:30;;;;;;;0.00;0.00;;;;;;;;;;1745892;28;20222;-74
2022/04/23 02:19:22;;;;;;;0.00;0.00;;;;;;;;;;1744087;28;20233;-74
2022/04/23 02:20:15;;;;;;;0.00;0.00;;;;;;;;;;1743611;28;20292;-74
2022/04/23 02:21:07;;;;;;;0.00;0.00;;;;;;;;;;1744524;28;20245;-75
2022/04/23 02:21:59;;;;;;;0.00;0.00;;;;;;;;;;1745982;28;20202;-75
2022/04/23 02:22:51;;;;;;;0.00;0.00;;;;;;;;;;1745116;28;20576;-75
2022/04/23 02:23:44;;;;;;;0.00;0.00;;;;;;;;;;1746098;28;20209;-76
2022/04/23 02:24:35;;;;;;;0.00;0.00;;;;;;;;;;1748006;28;20202;-76
2022/04/23 02:25:27;;;;;;;0.00;0.00;;;;;;;;;;1742430;28;20229;-76
2022/04/23 02:26:20;;;;;;;0.00;0.00;;;;;;;;;;1744891;28;20214;-75
2022/04/23 02:27:12;;;;;;;0.00;0.00;;;;;;;;;;1745717;28;20698;-75
2022/04/23 02:28:04;;;;;;;0.03;0.03;;;;;;;;;;1745294;28;20214;-76
2022/04/23 02:28:56;;;;;;;0.00;0.00;;;;;;;;;;1746162;28;20266;-75
2022/04/23 02:29:47;;;;;;;0.00;0.00;;;;;;;;;;1744609;28;20209;-75
2022/04/23 02:30:40;;;;;;;0.00;0.00;;;;;;;;;;1743388;28;20236;-75
2022/04/23 02:31:31;;;;;;;0.00;0.00;;;;;;;;;;1744090;28;20198;-75
2022/04/23 02:32:23;;;;;;;0.00;0.00;;;;;;;;;;1745398;28;20206;-75
2022/04/23 02:33:14;;;;;;;0.00;0.00;;;;;;;;;;1745337;28;20926;-75
2022/04/23 02:34:07;;;;;;;0.00;0.00;;;;;;;;;;1745289;28;20214;-75
2022/04/23 02:34:58;;;;;;;0.00;0.00;;;;;;;;;;1745476;28;20668;-75
2022/04/23 02:35:51;;;;;;;0.00;0.00;;;;;;;;;;1742368;28;20244;-75
2022/04/23 02:36:43;;;;;;;0.00;0.00;;;;;;;;;;1745843;28;20424;-74
2022/04/23 02:37:35;;;;;;;0.00;0.00;;;;;;;;;;1743883;28;20202;-74
2022/04/23 02:38:28;;;;;;;0.00;0.00;;;;;;;;;;1748447;28;20205;-74
2022/04/23 02:39:20;;;;;;;0.00;0.00;;;;;;;;;;1748621;28;20246;-75
2022/04/23 02:40:12;;;;;;;0.00;0.00;;;;;;;;;;1744570;28;20217;-74
2022/04/23 02:41:04;;;;;;;0.00;0.00;;;;;;;;;;1745960;28;20614;-74
2022/04/23 02:41:55;;;;;;;0.00;0.00;;;;;;;;;;1747042;28;20198;-75
2022/04/23 02:42:48;;;;;;;0.00;0.00;;;;;;;;;;1746461;28;20587;-75
2022/04/23 02:43:39;;;;;;;0.00;0.00;;;;;;;;;;1746179;28;20301;-75
2022/04/23 02:44:32;;;;;;;0.00;0.00;;;;;;;;;;1746201;28;20208;-76
2022/04/23 02:45:27;;;;;;;0.00;0.00;;;;;;;;;;1744426;28;20210;-76
2022/04/23 02:46:19;;;;;;;0.00;0.00;;;;;;;;;;1746142;28;20287;-75
2022/04/23 02:47:11;;;;;;;0.00;0.00;;;;;;;;;;1747276;28;20213;-75
2022/04/23 02:48:03;;;;;;;0.00;0.00;;;;;;;;;;1746394;28;20194;-74
2022/04/23 02:48:55;;;;;;;0.00;0.00;;;;;;;;;;1747106;28;20198;-74
2022/04/23 02:49:47;;;;;;;0.00;0.00;;;;;;;;;;1745772;28;20194;-74
2022/04/23 02:50:39;;;;;;;0.00;0.00;;;;;;;;;;1744126;28;20242;-74
2022/04/23 02:51:31;;;;;;;0.00;0.00;;;;;;;;;;1746950;28;20625;-75
2022/04/23 02:52:22;;;;;;;0.00;0.00;;;;;;;;;;1746372;28;20267;-75
2022/04/23 02:53:16;;;;;;;0.00;0.00;;;;;;;;;;1748145;28;20194;-75
2022/04/23 02:54:08;;;;;;;0.00;0.00;;;;;;;;;;1746972;28;20575;-75
2022/04/23 02:55:01;;;;;;;0.10;0.10;;;;;;;;;;1747310;28;20491;-74
2022/04/23 02:55:54;;;;;;;0.00;0.00;;;;;;;;;;1742743;28;20233;-74
2022/04/23 02:56:47;;;;;;;0.00;0.00;;;;;;;;;;1746775;28;20490;-75
2022/04/23 02:57:39;;;;;;;0.00;0.00;;;;;;;;;;1745905;28;20591;-74
2022/04/23 02:58:32;;;;;;;0.00;0.00;;;;;;;;;;1747086;28;20244;-74
2022/04/23 02:59:24;;;;;;;0.00;0.00;;;;;;;;;;1746474;28;20698;-74
2022/04/23 03:00:16;;;;;;;0.00;0.00;;;;;;;;;;1745083;28;20236;-74
2022/04/23 03:01:10;;;;;;;0.00;0.00;;;;;;;;;;1741992;28;20824;-74
2022/04/23 03:02:02;;;;;;;0.00;0.00;;;;;;;;;;1739791;28;20697;-75
2022/04/23 03:02:53;;;;;;;0.00;0.00;;;;;;;;;;1741201;28;20269;-75
2022/04/23 03:03:46;;;;;;;0.00;0.00;;;;;;;;;;1747134;28;20232;-75
2022/04/23 03:04:38;;;;;;;0.00;0.00;;;;;;;;;;1740242;28;20544;-74
2022/04/23 03:05:31;;;;;;;0.00;0.00;;;;;;;;;;1744104;28;20237;-75
2022/04/23 03:06:22;;;;;;;0.00;0.00;;;;;;;;;;1746753;28;20206;-75
2022/04/23 03:07:14;;;;;;;0.00;0.00;;;;;;;;;;1747247;28;20234;-76
2022/04/23 03:08:05;;;;;;;0.00;0.00;;;;;;;;;;1747563;28;20220;-76
2022/04/23 03:09:02;;;;;;;0.00;0.00;;;;;;;;;;1750554;28;20243;-75
2022/04/23 03:09:55;;;;;;;0.00;0.00;;;;;;;;;;1745857;28;20202;-76
2022/04/23 03:10:47;;;;;;;0.00;0.00;;;;;;;;;;1742561;28;20246;-76
2022/04/23 03:11:38;;;;;;;0.00;0.00;;;;;;;;;;1746823;28;20198;-75
2022/04/23 03:12:30;;;;;;;0.00;0.00;;;;;;;;;;1743811;28;20238;-74
2022/04/23 03:13:23;;;;;;;0.00;0.00;;;;;;;;;;1736264;28;20222;-74
2022/04/23 03:14:16;;;;;;;0.00;0.00;;;;;;;;;;1736913;28;20209;-74
2022/04/23 03:15:08;;;;;;;0.00;0.00;;;;;;;;;;1741197;28;20206;-74
2022/04/23 03:16:01;;;;;;;0.00;0.00;;;;;;;;;;1746564;28;20222;-74
2022/04/23 03:16:52;;;;;;;0.00;0.00;;;;;;;;;;1746937;28;20485;-74
2022/04/23 03:17:45;;;;;;;0.00;0.00;;;;;;;;;;1747063;28;20692;-74
2022/04/23 03:18:36;;;;;;;0.00;0.00;;;;;;;;;;1747051;28;20232;-74
2022/04/23 03:19:28;;;;;;;0.00;0.00;;;;;;;;;;1746204;28;20255;-74
2022/04/23 03:20:21;;;;;;;0.00;0.00;;;;;;;;;;1743495;28;20206;-74
2022/04/23 03:21:14;;;;;;;0.00;0.00;;;;;;;;;;1745672;28;20234;-75
2022/04/23 03:22:05;;;;;;;0.00;0.00;;;;;;;;;;1746896;28;20206;-75
2022/04/23 03:22:58;;;;;;;0.00;0.00;;;;;;;;;;1747070;28;20198;-74
2022/04/23 03:23:49;;;;;;;0.00;0.00;;;;;;;;;;1746845;28;20517;-74
2022/04/23 03:24:41;;;;;;;0.00;0.00;;;;;;;;;;1746412;28;20198;-74
2022/04/23 03:25:34;;;;;;;0.00;0.00;;;;;;;;;;1744200;28;20702;-75
2022/04/23 03:26:26;;;;;;;0.00;0.00;;;;;;;;;;1740037;28;20218;-74
2022/04/23 03:27:17;;;;;;;0.00;0.00;;;;;;;;;;1743226;28;20593;-74
2022/04/23 03:28:13;;;;;;;0.00;0.00;;;;;;;;;;1737322;28;20198;-75
2022/04/23 03:29:04;;;;;;;0.00;0.00;;;;;;;;;;1737935;28;20196;-75
2022/04/23 03:29:59;;;;;;;0.00;0.00;;;;;;;;;;1746367;28;20607;-74
2022/04/23 03:30:50;;;;;;;0.00;0.00;;;;;;;;;;1742275;28;20534;-74
2022/04/23 03:31:42;;;;;;;0.00;0.00;;;;;;;;;;1746674;28;20209;-76
2022/04/23 03:32:34;;;;;;;0.00;0.00;;;;;;;;;;1746023;28;20218;-76
2022/04/23 03:33:26;;;;;;;0.00;0.00;;;;;;;;;;1746174;28;20202;-76
2022/04/23 03:34:18;;;;;;;0.00;0.00;;;;;;;;;;1746086;28;20252;-75
2022/04/23 03:35:10;;;;;;;0.00;0.00;;;;;;;;;;1745125;28;20272;-76
2022/04/23 03:36:01;;;;;;;0.00;0.00;;;;;;;;;;1745420;28;20240;-76
2022/04/23 03:36:54;;;;;;;0.00;0.00;;;;;;;;;;1746900;28;20200;-75
2022/04/23 03:37:45;;;;;;;0.00;0.00;;;;;;;;;;1746057;28;20244;-75
2022/04/23 03:38:37;;;;;;;0.00;0.00;;;;;;;;;;1749745;28;20324;-74
2022/04/23 03:39:28;;;;;;;0.00;0.00;;;;;;;;;;1746833;28;20253;-75
2022/04/23 03:40:23;;;;;;;0.00;0.00;;;;;;;;;;1740004;28;20281;-74
2022/04/23 03:41:16;;;;;;;0.00;0.00;;;;;;;;;;1742179;28;20199;-75
2022/04/23 03:42:08;;;;;;;0.00;0.00;;;;;;;;;;1743059;28;20282;-75
2022/04/23 03:42:59;;;;;;;0.00;0.00;;;;;;;;;;1746354;28;20202;-76
2022/04/23 03:43:52;;;;;;;0.00;0.00;;;;;;;;;;1746608;28;20225;-76
2022/04/23 03:44:43;;;;;;;0.00;0.00;;;;;;;;;;1747980;28;20284;-76
2022/04/23 03:45:37;;;;;;;0.00;0.00;;;;;;;;;;1743349;28;20226;-76
2022/04/23 03:46:28;;;;;;;0.00;0.00;;;;;;;;;;1740123;28;20207;-76
2022/04/23 03:47:20;;;;;;;0.00;0.00;;;;;;;;;;1745028;28;20469;-76
2022/04/23 03:48:13;;;;;;;0.00;0.00;;;;;;;;;;1746610;28;20210;-76
2022/04/23 03:49:05;;;;;;;0.00;0.00;;;;;;;;;;1746096;28;20214;-76
2022/04/23 03:49:56;;;;;;;0.00;0.00;;;;;;;;;;1746602;28;20217;-76
2022/04/23 03:50:48;;;;;;;0.00;0.00;;;;;;;;;;1743830;28;20690;-76
2022/04/23 03:51:41;;;;;;;0.00;0.00;;;;;;;;;;1745830;28;20210;-76
2022/04/23 03:52:34;;;;;;;0.00;0.00;;;;;;;;;;1746167;28;20603;-76
2022/04/23 03:53:25;;;;;;;0.00;0.00;;;;;;;;;;1747011;28;20210;-76
2022/04/23 03:54:17;;;;;;;0.00;0.00;;;;;;;;;;1746085;28;20210;-76
2022/04/23 03:55:11;;;;;;;0.00;0.00;;;;;;;;;;1744604;28;20217;-77
2022/04/23 03:56:03;;;;;;;0.08;0.08;;;;;;;;;;1745425;28;20691;-76
2022/04/23 03:56:56;;;;;;;0.00;0.00;;;;;;;;;;1746661;28;20210;-76
2022/04/23 03:57:48;;;;;;;0.00;0.00;;;;;;;;;;1745373;28;20213;-76
2022/04/23 03:58:40;;;;;;;0.00;0.00;;;;;;;;;;1746905;28;20242;-76
2022/04/23 03:59:32;;;;;;;0.00;0.00;;;;;;;;;;1746067;28;20236;-76
2022/04/23 04:00:26;;;;;;;0.00;0.00;;;;;;;;;;1744303;28;20212;-76
2022/04/23 04:01:18;;;;;;;0.00;0.00;;;;;;;;;;1740879;28;20256;-76
2022/04/23 04:02:09;;;;;;;0.00;0.00;;;;;;;;;;1744122;28;20217;-76
2022/04/23 04:03:02;;;;;;;0.00;0.00;;;;;;;;;;1746021;28;20279;-76
2022/04/23 04:03:53;;;;;;;0.00;0.00;;;;;;;;;;1743987;28;20668;-76
2022/04/23 04:04:47;;;;;;;0.00;0.00;;;;;;;;;;1746320;28;20198;-76
2022/04/23 04:05:39;;;;;;;0.00;0.00;;;;;;;;;;1742247;28;20254;-76
2022/04/23 04:06:31;;;;;;;0.00;0.00;;;;;;;;;;1737892;28;20282;-75
2022/04/23 04:07:22;;;;;;;0.00;0.00;;;;;;;;;;1740683;28;20214;-75
2022/04/23 04:08:14;;;;;;;0.00;0.00;;;;;;;;;;1743906;28;20570;-75
2022/04/23 04:09:05;;;;;;;0.00;0.00;;;;;;;;;;1743515;28;20203;-75
2022/04/23 04:10:01;;;;;;;0.00;0.00;;;;;;;;;;1746148;28;20198;-75
2022/04/23 04:10:52;;;;;;;0.00;0.00;;;;;;;;;;1743594;28;20230;-75
2022/04/23 04:12:02;;;;;;;0.00;0.00;;;;;;;;;;1746784;28;20232;-75
2022/04/23 04:12:55;;;;;;;0.00;0.00;;;;;;;;;;1747505;28;20191;-75
2022/04/23 04:13:47;;;;;;;0.00;0.00;;;;;;;;;;1746996;28;20210;-75
2022/04/23 04:14:39;;;;;;;0.00;0.00;;;;;;;;;;1747645;28;20206;-75
2022/04/23 04:15:31;;;;;;;0.00;0.00;;;;;;;;;;1744051;28;20679;-74
2022/04/23 04:16:25;;;;;;;0.00;0.00;;;;;;;;;;1745828;28;20213;-76
2022/04/23 04:17:17;;;;;;;0.00;0.00;;;;;;;;;;1746027;28;20263;-75
2022/04/23 04:18:08;;;;;;;0.10;0.10;;;;;;;;;;1743907;28;20217;-75
2022/04/23 04:19:01;;;;;;;0.00;0.00;;;;;;;;;;1746700;28;20620;-76
2022/04/23 04:19:53;;;;;;;0.00;0.00;;;;;;;;;;1746614;28;20217;-76
2022/04/23 04:20:48;;;;;;;0.00;0.00;;;;;;;;;;1744284;28;20233;-76
2022/04/23 04:21:39;;;;;;;0.00;0.00;;;;;;;;;;1746438;28;20203;-75
2022/04/23 04:22:32;;;;;;;0.00;0.00;;;;;;;;;;1745697;28;20217;-74
2022/04/23 04:23:24;;;;;;;0.00;0.00;;;;;;;;;;1747327;28;20386;-74
2022/04/23 04:24:17;;;;;;;0.00;0.00;;;;;;;;;;1747412;28;20198;-75
2022/04/23 04:25:09;;;;;;;0.00;0.00;;;;;;;;;;1745206;28;20217;-74
2022/04/23 04:26:01;;;;;;;0.00;0.00;;;;;;;;;;1746397;28;20281;-74
2022/04/23 04:26:53;;;;;;;0.00;0.00;;;;;;;;;;1746914;28;20213;-75
2022/04/23 04:27:45;;;;;;;0.00;0.00;;;;;;;;;;1747622;28;20205;-76
2022/04/23 04:28:38;;;;;;;0.00;0.00;;;;;;;;;;1746107;28;20213;-76
2022/04/23 04:29:31;;;;;;;0.00;0.00;;;;;;;;;;1746521;28;20734;-76
2022/04/23 04:30:25;;;;;;;0.00;0.00;;;;;;;;;;1736948;28;20206;-75
2022/04/23 04:32:27;;;;;;;0.00;0.00;;;;;;;;;;1745210;28;20202;-75
2022/04/23 04:33:19;;;;;;;0.00;0.00;;;;;;;;;;1746606;28;20213;-76
2022/04/23 04:34:10;;;;;;;0.00;0.00;;;;;;;;;;1742761;28;20217;-76
2022/04/23 04:35:02;;;;;;;0.00;0.00;;;;;;;;;;1737060;28;20231;-76
2022/04/23 04:35:53;;;;;;;0.00;0.00;;;;;;;;;;1740732;28;20404;-75
2022/04/23 04:36:45;;;;;;;0.00;0.00;;;;;;;;;;1746410;28;20198;-74
2022/04/23 04:37:37;;;;;;;0.00;0.00;;;;;;;;;;1748110;28;20316;-75
2022/04/23 04:38:28;;;;;;;0.00;0.00;;;;;;;;;;1749373;28;20198;-75
2022/04/23 04:39:21;;;;;;;0.00;0.00;;;;;;;;;;1754740;28;20703;-74
2022/04/23 04:40:12;;;;;;;0.00;0.00;;;;;;;;;;1748698;28;20201;-74
2022/04/23 04:41:05;;;;;;;0.00;0.00;;;;;;;;;;1751532;28;20559;-74
2022/04/23 04:41:56;;;;;;;0.00;0.00;;;;;;;;;;1753554;28;20197;-74
2022/04/23 04:42:49;;;;;;;0.00;0.00;;;;;;;;;;1753502;28;20587;-74
2022/04/23 04:43:41;;;;;;;0.00;0.00;;;;;;;;;;1753438;28;20216;-74
2022/04/23 04:44:34;;;;;;;0.00;0.00;;;;;;;;;;1754034;28;20224;-75
2022/04/23 04:45:25;;;;;;;0.00;0.00;;;;;;;;;;1751190;28;20815;-75
2022/04/23 04:46:17;;;;;;;0.00;0.00;;;;;;;;;;1753367;28;20289;-75
2022/04/23 04:47:09;;;;;;;0.00;0.00;;;;;;;;;;1752547;28;20202;-75
2022/04/23 04:48:01;;;;;;;0.00;0.00;;;;;;;;;;1753116;28;20296;-75
2022/04/23 04:48:52;;;;;;;0.00;0.00;;;;;;;;;;1752213;28;20210;-75
2022/04/23 04:49:44;;;;;;;0.00;0.00;;;;;;;;;;1752223;28;20259;-75
2022/04/23 04:50:36;;;;;;;0.00;0.00;;;;;;;;;;1751776;28;20527;-75
2022/04/23 04:51:28;;;;;;;0.00;0.00;;;;;;;;;;1752861;28;20201;-75
2022/04/23 04:52:19;;;;;;;0.00;0.00;;;;;;;;;;1752944;28;20292;-75
2022/04/23 04:53:11;;;;;;;0.00;0.00;;;;;;;;;;1751387;28;20262;-75
2022/04/23 04:54:03;;;;;;;0.00;0.00;;;;;;;;;;1753998;28;20197;-74
2022/04/23 04:54:55;;;;;;;0.00;0.00;;;;;;;;;;1753377;28;20228;-75
2022/04/23 04:55:46;;;;;;;0.00;0.00;;;;;;;;;;1750472;28;20233;-75
2022/04/23 04:56:38;;;;;;;0.00;0.00;;;;;;;;;;1754058;28;20225;-74
2022/04/23 04:57:30;;;;;;;0.00;0.00;;;;;;;;;;1752614;28;20209;-75
2022/04/23 04:58:22;;;;;;;0.00;0.00;;;;;;;;;;1755697;28;20360;-75
2022/04/23 04:59:15;;;;;;;0.00;0.00;;;;;;;;;;1753548;28;20221;-75
2022/04/23 05:00:08;;;;;;;0.00;0.00;;;;;;;;;;1753205;28;20694;-75
2022/04/23 05:00:59;;;;;;;0.00;0.00;;;;;;;;;;1750882;28;20220;-75
2022/04/23 05:01:51;;;;;;;0.00;0.00;;;;;;;;;;1752607;28;20213;-76
2022/04/23 05:02:42;;;;;;;0.00;0.00;;;;;;;;;;1755030;28;20221;-76
2022/04/23 05:03:36;;;;;;;0.00;0.00;;;;;;;;;;1754030;28;20208;-75
2022/04/23 05:04:28;;;;;;;0.00;0.00;;;;;;;;;;1752900;28;20206;-75
2022/04/23 05:05:20;;;;;;;0.00;0.00;;;;;;;;;;1749286;28;20790;-76
2022/04/23 05:06:11;;;;;;;0.00;0.00;;;;;;;;;;1752813;28;20210;-75
2022/04/23 05:07:04;;;;;;;0.00;0.00;;;;;;;;;;1753447;28;20227;-74
2022/04/23 05:07:55;;;;;;;0.00;0.00;;;;;;;;;;1753091;28;20202;-74
2022/04/23 05:08:47;;;;;;;0.00;0.00;;;;;;;;;;1753358;28;20651;-74
2022/04/23 05:09:39;;;;;;;0.00;0.00;;;;;;;;;;1753105;28;20701;-74
2022/04/23 05:10:31;;;;;;;0.00;0.00;;;;;;;;;;1751007;28;20689;-73
2022/04/23 05:11:22;;;;;;;0.00;0.00;;;;;;;;;;1753400;28;20423;-74
2022/04/23 05:12:14;;;;;;;0.00;0.00;;;;;;;;;;1753065;28;20442;-74
2022/04/23 05:13:05;;;;;;;0.00;0.00;;;;;;;;;;1752486;28;20547;-74
2022/04/23 05:13:58;;;;;;;0.00;0.00;;;;;;;;;;1753141;28;20193;-74
2022/04/23 05:14:50;;;;;;;0.00;0.00;;;;;;;;;;1753478;28;20216;-74